PWSweather.com
Personal Weather Stations
Station Observations
MENWDWX1
Menstrie, ScotlandGB

MenstrieScotlandGB

Lat: 56.148322, Lon: -3.85483

Elevation: 62

Station Type: Davis Vantage Pro 2

Latest ConditionsUpdated 2:00:01 PM GMT Sunday, Dec 16, 2018
Currently Today's Max Today's Min Today's Average
Temperature 41.5°F5.3°C 41.8°F5.4°C 32.3°F0.2°C 36.4°F2.4°C
Dew Point 35.8°F2.1°C 35.9°F2.2°C 25.9°F-3.4°C 30.2°F-1.0°C
Winds 3.5 mph SW5.6 kmh SW 10.4 mph -16.7 kmh - - 3.0 mph 4.8 kmh
Wind Gusts 8.1 mph13.0 kmh 13.8 mph22.2 kmh - -
Humidity 80% 80% 76% 78%
Pressure 29.49 in998.6 mb 29.49 in998.6 mb 29.14 in986.8 mb -
Precipitation - 0.16 in4.1 mm - -
Hour Temp Dew Point Humidity Winds Wind Gusts Pressure Precip Precip Rate Daily Precip Total
02:00 PM 41.5°F5.3°C 35.8°F2.1°C 80% 3.5 mph SW5.6 kmh SW 8.1 mph13.0 kmh 29.49 in998.6 mb - 0.01 in0.3 mm 0.16 in4.1 mm
01:55 PM 41.6°F5.3°C 35.9°F2.2°C 80% 3.5 mph WSW5.6 kmh WSW 4.6 mph7.4 kmh 29.49 in998.6 mb - 0.01 in0.3 mm 0.16 in4.1 mm
01:50 PM 41.8°F5.4°C 35.8°F2.1°C 79% 2.3 mph WSW3.7 kmh WSW 3.5 mph5.6 kmh 29.49 in998.6 mb - 0.01 in0.3 mm 0.16 in4.1 mm
01:45 PM 41.8°F5.4°C 35.8°F2.1°C 79% 1.2 mph WSW1.9 kmh WSW 2.3 mph3.7 kmh 29.49 in998.6 mb - 0.01 in0.3 mm 0.16 in4.1 mm
01:40 PM 41.8°F5.4°C 35.8°F2.1°C 79% 2.3 mph WSW3.7 kmh WSW 3.5 mph5.6 kmh 29.49 in998.6 mb - 0.01 in0.3 mm 0.16 in4.1 mm
01:35 PM 41.8°F5.4°C 35.8°F2.1°C 79% 2.3 mph WSW3.7 kmh WSW 3.5 mph5.6 kmh 29.49 in998.6 mb - 0.01 in0.3 mm 0.16 in4.1 mm
01:30 PM 41.7°F5.4°C 35.7°F2.1°C 79% 3.5 mph WSW5.6 kmh WSW 3.5 mph5.6 kmh 29.49 in998.6 mb - 0.01 in0.3 mm 0.16 in4.1 mm
01:25 PM 41.6°F5.3°C 35.6°F2.0°C 79% 2.3 mph WSW3.7 kmh WSW 3.5 mph5.6 kmh 29.49 in998.6 mb - 0.02 in0.5 mm 0.16 in4.1 mm
01:20 PM 41.4°F5.2°C 35.4°F1.9°C 79% 3.5 mph WSW5.6 kmh WSW 4.6 mph7.4 kmh 29.49 in998.6 mb - 0.01 in0.3 mm 0.15 in3.8 mm
01:15 PM 41.0°F5.0°C 34.9°F1.6°C 79% 4.6 mph WSW7.4 kmh WSW 6.9 mph11.1 kmh 29.49 in998.6 mb - 0.01 in0.3 mm 0.15 in3.8 mm
01:10 PM 40.5°F4.7°C 34.5°F1.4°C 79% 5.8 mph SW9.3 kmh SW 6.9 mph11.1 kmh 29.49 in998.6 mb - 0.01 in0.3 mm 0.15 in3.8 mm
01:05 PM 40.4°F4.7°C 34.7°F1.5°C 80% 2.3 mph SW3.7 kmh SW 3.5 mph5.6 kmh 29.49 in998.6 mb - 0.01 in0.3 mm 0.15 in3.8 mm
01:00 PM 40.5°F4.7°C 34.5°F1.4°C 79% 3.5 mph SW5.6 kmh SW 4.6 mph7.4 kmh 29.49 in998.6 mb - 0.01 in0.3 mm 0.15 in3.8 mm
12:55 PM 40.7°F4.8°C 35.0°F1.7°C 80% 3.5 mph SW5.6 kmh SW 5.8 mph9.3 kmh 29.48 in998.3 mb - 0.01 in0.3 mm 0.15 in3.8 mm
12:50 PM 40.9°F4.9°C 35.2°F1.8°C 80% 4.6 mph SW7.4 kmh SW 10.4 mph16.7 kmh 29.48 in998.3 mb - 0.01 in0.3 mm 0.15 in3.8 mm
12:45 PM 41.0°F5.0°C 35.0°F1.7°C 79% 5.8 mph SW9.3 kmh SW 11.5 mph18.5 kmh 29.48 in998.3 mb - 0.01 in0.3 mm 0.15 in3.8 mm
12:40 PM 41.1°F5.1°C 35.1°F1.7°C 79% 4.6 mph SW7.4 kmh SW 10.4 mph16.7 kmh 29.48 in998.3 mb - 0.01 in0.3 mm 0.15 in3.8 mm
12:35 PM 41.1°F5.1°C 35.1°F1.7°C 79% 4.6 mph SW7.4 kmh SW 6.9 mph11.1 kmh 29.48 in998.3 mb - 0.01 in0.3 mm 0.15 in3.8 mm
12:30 PM 41.0°F5.0°C 35.0°F1.7°C 79% 5.8 mph SW9.3 kmh SW 11.5 mph18.5 kmh 29.48 in998.3 mb - 0.01 in0.3 mm 0.15 in3.8 mm
12:25 PM 40.7°F4.8°C 34.7°F1.5°C 79% 6.9 mph SW11.1 kmh SW 9.2 mph14.8 kmh 29.48 in998.3 mb - 0.00 in0.0 mm 0.14 in3.6 mm
12:20 PM 40.5°F4.7°C 34.5°F1.4°C 79% 3.5 mph SW5.6 kmh SW 5.8 mph9.3 kmh 29.48 in998.3 mb - 0.00 in0.0 mm 0.14 in3.6 mm
12:15 PM 40.5°F4.7°C 34.5°F1.4°C 79% 3.5 mph SW5.6 kmh SW 3.5 mph5.6 kmh 29.48 in998.3 mb - 0.01 in0.3 mm 0.14 in3.6 mm
12:10 PM 40.7°F4.8°C 34.7°F1.5°C 79% 2.3 mph SW3.7 kmh SW 3.5 mph5.6 kmh 29.48 in998.3 mb - 0.01 in0.3 mm 0.14 in3.6 mm
12:05 PM 40.8°F4.9°C 34.8°F1.6°C 79% 2.3 mph SW3.7 kmh SW 3.5 mph5.6 kmh 29.48 in998.3 mb - 0.01 in0.3 mm 0.14 in3.6 mm
12:00 PM 41.0°F5.0°C 35.0°F1.7°C 79% 2.3 mph SW3.7 kmh SW 3.5 mph5.6 kmh 29.48 in998.3 mb - 0.01 in0.3 mm 0.14 in3.6 mm
11:55 AM 41.1°F5.1°C 35.1°F1.7°C 79% 2.3 mph SW3.7 kmh SW 3.5 mph5.6 kmh 29.48 in998.3 mb - 0.01 in0.3 mm 0.14 in3.6 mm
11:50 AM 41.2°F5.1°C 35.2°F1.8°C 79% 2.3 mph SW3.7 kmh SW 4.6 mph7.4 kmh 29.48 in998.3 mb - 0.02 in0.5 mm 0.14 in3.6 mm
11:45 AM 41.4°F5.2°C 35.4°F1.9°C 79% 3.5 mph SW5.6 kmh SW 5.8 mph9.3 kmh 29.48 in998.3 mb - 0.02 in0.5 mm 0.14 in3.6 mm
11:40 AM 41.4°F5.2°C 35.1°F1.7°C 78% 2.3 mph SSW3.7 kmh SSW 3.5 mph5.6 kmh 29.48 in998.3 mb - 0.02 in0.5 mm 0.14 in3.6 mm
11:35 AM 41.2°F5.1°C 35.2°F1.8°C 79% 1.2 mph SSW1.9 kmh SSW 1.2 mph1.9 kmh 29.48 in998.3 mb - 0.02 in0.5 mm 0.14 in3.6 mm
11:30 AM 41.1°F5.1°C 35.1°F1.7°C 79% Calm Calm -- 29.48 in998.3 mb - 0.02 in0.5 mm 0.14 in3.6 mm
11:25 AM 41.1°F5.1°C 35.1°F1.7°C 79% 2.3 mph SSW3.7 kmh SSW 3.5 mph5.6 kmh 29.48 in998.3 mb - 0.02 in0.5 mm 0.14 in3.6 mm
11:20 AM 41.2°F5.1°C 35.2°F1.8°C 79% 3.5 mph SW5.6 kmh SW 3.5 mph5.6 kmh 29.48 in998.3 mb - 0.02 in0.5 mm 0.14 in3.6 mm
11:15 AM 41.1°F5.1°C 34.8°F1.6°C 78% 4.6 mph SSW7.4 kmh SSW 6.9 mph11.1 kmh 29.48 in998.3 mb - 0.01 in0.3 mm 0.13 in3.3 mm
11:10 AM 41.0°F5.0°C 34.6°F1.4°C 78% 5.8 mph S9.3 kmh S 6.9 mph11.1 kmh 29.48 in998.3 mb - 0.01 in0.3 mm 0.13 in3.3 mm
11:05 AM 40.7°F4.8°C 34.3°F1.3°C 78% 6.9 mph SW11.1 kmh SW 9.2 mph14.8 kmh 29.48 in998.3 mb - 0.01 in0.3 mm 0.13 in3.3 mm
11:00 AM 40.3°F4.6°C 34.0°F1.1°C 78% 4.6 mph SW7.4 kmh SW 4.6 mph7.4 kmh 29.48 in998.3 mb - 0.01 in0.3 mm 0.13 in3.3 mm
10:55 AM 40.0°F4.4°C 33.7°F0.9°C 78% 3.5 mph WSW5.6 kmh WSW 5.8 mph9.3 kmh 29.48 in998.3 mb - 0.01 in0.3 mm 0.13 in3.3 mm
10:50 AM 39.8°F4.3°C 33.5°F0.8°C 78% 1.2 mph SW1.9 kmh SW 3.5 mph5.6 kmh 29.48 in998.3 mb - 0.00 in0.0 mm 0.12 in3.0 mm
10:45 AM 39.6°F4.2°C 33.6°F0.9°C 79% 3.5 mph SW5.6 kmh SW 6.9 mph11.1 kmh 29.47 in998.0 mb - 0.00 in0.0 mm 0.12 in3.0 mm
10:40 AM 39.3°F4.1°C 33.3°F0.7°C 79% 1.2 mph WSW1.9 kmh WSW 2.3 mph3.7 kmh 29.47 in998.0 mb - 0.01 in0.3 mm 0.12 in3.0 mm
10:35 AM 39.5°F4.2°C 33.5°F0.8°C 79% Calm Calm 1.2 mph1.9 kmh 29.47 in998.0 mb - 0.01 in0.3 mm 0.12 in3.0 mm
10:30 AM 39.7°F4.3°C 33.7°F0.9°C 79% Calm Calm -- 29.46 in997.6 mb - 0.01 in0.3 mm 0.12 in3.0 mm
10:25 AM 39.8°F4.3°C 33.8°F1.0°C 79% Calm Calm 1.2 mph1.9 kmh 29.46 in997.6 mb - 0.01 in0.3 mm 0.12 in3.0 mm
10:20 AM 39.8°F4.3°C 33.8°F1.0°C 79% Calm Calm -- 29.46 in997.6 mb - 0.02 in0.5 mm 0.12 in3.0 mm
10:15 AM 40.0°F4.4°C 34.0°F1.1°C 79% Calm Calm -- 29.46 in997.6 mb - 0.02 in0.5 mm 0.12 in3.0 mm
10:10 AM 40.1°F4.5°C 34.1°F1.2°C 79% Calm Calm -- 29.45 in997.3 mb - 0.02 in0.5 mm 0.12 in3.0 mm
10:05 AM 40.3°F4.6°C 34.3°F1.3°C 79% 2.3 mph WSW3.7 kmh WSW 2.3 mph3.7 kmh 29.45 in997.3 mb - 0.02 in0.5 mm 0.12 in3.0 mm
10:00 AM 40.4°F4.7°C 34.4°F1.3°C 79% 1.2 mph WSW1.9 kmh WSW 2.3 mph3.7 kmh 29.45 in997.3 mb - 0.02 in0.5 mm 0.12 in3.0 mm
09:55 AM 40.6°F4.8°C 34.6°F1.4°C 79% 2.3 mph WSW3.7 kmh WSW 3.5 mph5.6 kmh 29.45 in997.3 mb - 0.02 in0.5 mm 0.12 in3.0 mm
09:50 AM 40.6°F4.8°C 34.6°F1.4°C 79% 4.6 mph WSW7.4 kmh WSW 6.9 mph11.1 kmh 29.45 in997.3 mb - 0.02 in0.5 mm 0.12 in3.0 mm
09:45 AM 40.6°F4.8°C 34.6°F1.4°C 79% 2.3 mph W3.7 kmh W 3.5 mph5.6 kmh 29.44 in997.0 mb - 0.02 in0.5 mm 0.12 in3.0 mm
09:40 AM 40.4°F4.7°C 34.4°F1.3°C 79% 2.3 mph WSW3.7 kmh WSW 3.5 mph5.6 kmh 29.44 in997.0 mb - 0.01 in0.3 mm 0.12 in3.0 mm
09:35 AM 40.0°F4.4°C 33.7°F0.9°C 78% 5.8 mph SW9.3 kmh SW 6.9 mph11.1 kmh 29.43 in996.6 mb - 0.01 in0.3 mm 0.12 in3.0 mm
09:30 AM 39.3°F4.1°C 33.0°F0.6°C 78% 10.4 mph WSW16.7 kmh WSW 12.7 mph20.4 kmh 29.43 in996.6 mb - 0.01 in0.3 mm 0.12 in3.0 mm
09:25 AM 39.1°F3.9°C 32.8°F0.4°C 78% 1.2 mph W1.9 kmh W 5.8 mph9.3 kmh 29.43 in996.6 mb - 0.02 in0.5 mm 0.12 in3.0 mm
09:20 AM 39.0°F3.9°C 32.7°F0.4°C 78% 1.2 mph WNW1.9 kmh WNW 2.3 mph3.7 kmh 29.42 in996.3 mb - 0.01 in0.3 mm 0.11 in2.8 mm
09:15 AM 38.9°F3.8°C 32.3°F0.2°C 77% 3.5 mph WNW5.6 kmh WNW 3.5 mph5.6 kmh 29.43 in996.6 mb - 0.01 in0.3 mm 0.11 in2.8 mm
09:10 AM 38.8°F3.8°C 32.2°F0.1°C 77% 2.3 mph NW3.7 kmh NW 3.5 mph5.6 kmh 29.43 in996.6 mb - 0.01 in0.3 mm 0.11 in2.8 mm
09:05 AM 38.6°F3.7°C 32.0°F0.0°C 77% 5.8 mph W9.3 kmh W 9.2 mph14.8 kmh 29.42 in996.3 mb - 0.01 in0.3 mm 0.11 in2.8 mm
09:00 AM 38.6°F3.7°C 32.0°F0.0°C 77% 2.3 mph WNW3.7 kmh WNW 3.5 mph5.6 kmh 29.42 in996.3 mb - 0.01 in0.3 mm 0.11 in2.8 mm
08:55 AM 38.6°F3.7°C 32.0°F0.0°C 77% 1.2 mph SW1.9 kmh SW 3.5 mph5.6 kmh 29.41 in995.9 mb - 0.01 in0.3 mm 0.11 in2.8 mm
08:50 AM 38.7°F3.7°C 32.1°F0.1°C 77% 2.3 mph W3.7 kmh W 6.9 mph11.1 kmh 29.41 in995.9 mb - 0.02 in0.5 mm 0.11 in2.8 mm
08:45 AM 38.6°F3.7°C 32.0°F0.0°C 77% 3.5 mph W5.6 kmh W 3.5 mph5.6 kmh 29.41 in995.9 mb - 0.02 in0.5 mm 0.11 in2.8 mm
08:40 AM 38.4°F3.6°C 31.8°F-0.1°C 77% 4.6 mph SW7.4 kmh SW 11.5 mph18.5 kmh 29.41 in995.9 mb - 0.02 in0.5 mm 0.11 in2.8 mm
08:35 AM 38.4°F3.6°C 31.8°F-0.1°C 77% 3.5 mph SW5.6 kmh SW 6.9 mph11.1 kmh 29.40 in995.6 mb - 0.02 in0.5 mm 0.11 in2.8 mm
08:30 AM 38.2°F3.4°C 31.3°F-0.4°C 76% 3.5 mph WNW5.6 kmh WNW 3.5 mph5.6 kmh 29.40 in995.6 mb - 0.02 in0.5 mm 0.11 in2.8 mm
08:25 AM 37.9°F3.3°C 31.0°F-0.6°C 76% 3.5 mph NW5.6 kmh NW 4.6 mph7.4 kmh 29.40 in995.6 mb - 0.01 in0.3 mm 0.10 in2.5 mm
08:20 AM 37.5°F3.1°C 30.6°F-0.8°C 76% 4.6 mph WNW7.4 kmh WNW 9.2 mph14.8 kmh 29.39 in995.3 mb - 0.01 in0.3 mm 0.10 in2.5 mm
08:15 AM 37.1°F2.8°C 30.2°F-1.0°C 76% 2.3 mph W3.7 kmh W 3.5 mph5.6 kmh 29.39 in995.3 mb - 0.01 in0.3 mm 0.10 in2.5 mm
08:10 AM 36.7°F2.6°C 29.9°F-1.2°C 76% 1.2 mph NW1.9 kmh NW 4.6 mph7.4 kmh 29.39 in995.3 mb - 0.01 in0.3 mm 0.10 in2.5 mm
08:05 AM 36.1°F2.3°C 29.6°F-1.3°C 77% 3.5 mph WSW5.6 kmh WSW 4.6 mph7.4 kmh 29.39 in995.3 mb - 0.01 in0.3 mm 0.10 in2.5 mm
08:00 AM 35.2°F1.8°C 28.7°F-1.8°C 77% Calm Calm 1.2 mph1.9 kmh 29.38 in994.9 mb - 0.01 in0.3 mm 0.10 in2.5 mm
07:55 AM 35.2°F1.8°C 28.7°F-1.8°C 77% 2.3 mph E3.7 kmh E 3.5 mph5.6 kmh 29.38 in994.9 mb - 0.01 in0.3 mm 0.10 in2.5 mm
07:50 AM 35.1°F1.7°C 28.6°F-1.9°C 77% 3.5 mph E5.6 kmh E 5.8 mph9.3 kmh 29.38 in994.9 mb - 0.01 in0.3 mm 0.10 in2.5 mm
07:45 AM 35.0°F1.7°C 28.5°F-1.9°C 77% 2.3 mph E3.7 kmh E 3.5 mph5.6 kmh 29.37 in994.6 mb - 0.00 in0.0 mm 0.09 in2.3 mm
07:40 AM 34.8°F1.6°C 28.3°F-2.1°C 77% 2.3 mph E3.7 kmh E 3.5 mph5.6 kmh 29.36 in994.2 mb - 0.00 in0.0 mm 0.09 in2.3 mm
07:35 AM 34.6°F1.4°C 28.1°F-2.2°C 77% 3.5 mph E5.6 kmh E 3.5 mph5.6 kmh 29.36 in994.2 mb - 0.00 in0.0 mm 0.09 in2.3 mm
07:30 AM 34.4°F1.3°C 27.9°F-2.3°C 77% 2.3 mph E3.7 kmh E 3.5 mph5.6 kmh 29.36 in994.2 mb - 0.00 in0.0 mm 0.09 in2.3 mm
07:25 AM 34.4°F1.3°C 27.9°F-2.3°C 77% 1.2 mph E1.9 kmh E 3.5 mph5.6 kmh 29.35 in993.9 mb - 0.00 in0.0 mm 0.09 in2.3 mm
07:20 AM 34.3°F1.3°C 27.8°F-2.3°C 77% 1.2 mph E1.9 kmh E 3.5 mph5.6 kmh 29.35 in993.9 mb - 0.00 in0.0 mm 0.09 in2.3 mm
07:15 AM 34.3°F1.3°C 27.8°F-2.3°C 77% 2.3 mph E3.7 kmh E 3.5 mph5.6 kmh 29.35 in993.9 mb - 0.00 in0.0 mm 0.09 in2.3 mm
07:10 AM 34.1°F1.2°C 27.6°F-2.4°C 77% 3.5 mph E5.6 kmh E 5.8 mph9.3 kmh 29.34 in993.6 mb - 0.00 in0.0 mm 0.09 in2.3 mm
07:05 AM 33.7°F0.9°C 27.3°F-2.6°C 77% 4.6 mph E7.4 kmh E 6.9 mph11.1 kmh 29.34 in993.6 mb - 0.00 in0.0 mm 0.09 in2.3 mm
07:00 AM 33.8°F1.0°C 27.4°F-2.6°C 77% 3.5 mph E5.6 kmh E 3.5 mph5.6 kmh 29.33 in993.2 mb - 0.00 in0.0 mm 0.09 in2.3 mm
06:55 AM 33.7°F0.9°C 27.3°F-2.6°C 77% 2.3 mph E3.7 kmh E 3.5 mph5.6 kmh 29.33 in993.2 mb - 0.00 in0.0 mm 0.09 in2.3 mm
06:50 AM 33.7°F0.9°C 27.3°F-2.6°C 77% 2.3 mph E3.7 kmh E 3.5 mph5.6 kmh 29.33 in993.2 mb - 0.00 in0.0 mm 0.09 in2.3 mm
06:45 AM 33.8°F1.0°C 27.3°F-2.6°C 77% 3.5 mph E5.6 kmh E 3.5 mph5.6 kmh 29.32 in992.9 mb - 0.00 in0.0 mm 0.09 in2.3 mm
06:40 AM 33.4°F0.8°C 27.0°F-2.8°C 77% 5.8 mph E9.3 kmh E 6.9 mph11.1 kmh 29.32 in992.9 mb - 0.00 in0.0 mm 0.09 in2.3 mm
06:35 AM 33.4°F0.8°C 26.9°F-2.8°C 77% 3.5 mph E5.6 kmh E 3.5 mph5.6 kmh 29.32 in992.9 mb - 0.00 in0.0 mm 0.09 in2.3 mm
06:30 AM 33.4°F0.8°C 27.0°F-2.8°C 77% 3.5 mph E5.6 kmh E 3.5 mph5.6 kmh 29.31 in992.6 mb - 0.00 in0.0 mm 0.09 in2.3 mm
06:25 AM 33.3°F0.7°C 26.9°F-2.8°C 77% 3.5 mph E5.6 kmh E 4.6 mph7.4 kmh 29.31 in992.6 mb - 0.00 in0.0 mm 0.09 in2.3 mm
06:20 AM 33.5°F0.8°C 27.0°F-2.8°C 77% 5.8 mph E9.3 kmh E 8.1 mph13.0 kmh 29.31 in992.6 mb - 0.00 in0.0 mm 0.09 in2.3 mm
06:15 AM 33.5°F0.8°C 27.1°F-2.7°C 77% Calm Calm -- 29.30 in992.2 mb - 0.00 in0.0 mm 0.09 in2.3 mm
06:10 AM 33.6°F0.9°C 27.2°F-2.7°C 77% Calm Calm -- 29.30 in992.2 mb - 0.00 in0.0 mm 0.09 in2.3 mm
06:05 AM 33.6°F0.9°C 27.1°F-2.7°C 77% Calm Calm 2.3 mph3.7 kmh 29.30 in992.2 mb - 0.00 in0.0 mm 0.09 in2.3 mm
06:00 AM 33.5°F0.8°C 27.1°F-2.7°C 77% Calm Calm -- 29.29 in991.9 mb - 0.00 in0.0 mm 0.09 in2.3 mm
05:55 AM 33.4°F0.8°C 27.0°F-2.8°C 77% 2.3 mph E3.7 kmh E 3.5 mph5.6 kmh 29.29 in991.9 mb - 0.00 in0.0 mm 0.09 in2.3 mm
05:50 AM 33.3°F0.7°C 26.8°F-2.9°C 77% 3.5 mph E5.6 kmh E 3.5 mph5.6 kmh 29.29 in991.9 mb - 0.00 in0.0 mm 0.09 in2.3 mm
05:45 AM 33.0°F0.6°C 26.6°F-3.0°C 77% 1.2 mph E1.9 kmh E 2.3 mph3.7 kmh 29.28 in991.5 mb - 0.00 in0.0 mm 0.09 in2.3 mm
05:40 AM 33.0°F0.6°C 26.6°F-3.0°C 77% 3.5 mph E5.6 kmh E 4.6 mph7.4 kmh 29.28 in991.5 mb - 0.00 in0.0 mm 0.09 in2.3 mm
05:35 AM 32.8°F0.4°C 26.4°F-3.1°C 77% 4.6 mph E7.4 kmh E 6.9 mph11.1 kmh 29.27 in991.2 mb - 0.00 in0.0 mm 0.09 in2.3 mm
05:30 AM 32.7°F0.4°C 26.3°F-3.2°C 77% 4.6 mph E7.4 kmh E 4.6 mph7.4 kmh 29.27 in991.2 mb - 0.00 in0.0 mm 0.09 in2.3 mm
05:25 AM 32.6°F0.3°C 26.2°F-3.2°C 77% 3.5 mph E5.6 kmh E 3.5 mph5.6 kmh 29.27 in991.2 mb - 0.01 in0.3 mm 0.09 in2.3 mm
05:20 AM 32.5°F0.3°C 26.1°F-3.3°C 77% 3.5 mph E5.6 kmh E 3.5 mph5.6 kmh 29.26 in990.9 mb - 0.01 in0.3 mm 0.09 in2.3 mm
05:15 AM 32.6°F0.3°C 26.2°F-3.2°C 77% 2.3 mph S3.7 kmh S 3.5 mph5.6 kmh 29.26 in990.9 mb - 0.01 in0.3 mm 0.09 in2.3 mm
05:10 AM 32.6°F0.3°C 26.2°F-3.2°C 77% 1.2 mph SSW1.9 kmh SSW 2.3 mph3.7 kmh 29.26 in990.9 mb - 0.01 in0.3 mm 0.09 in2.3 mm
05:05 AM 32.8°F0.4°C 26.4°F-3.1°C 77% 2.3 mph SSW3.7 kmh SSW 3.5 mph5.6 kmh 29.25 in990.5 mb - 0.01 in0.3 mm 0.09 in2.3 mm
05:00 AM 32.7°F0.4°C 26.3°F-3.2°C 77% 1.2 mph W1.9 kmh W 2.3 mph3.7 kmh 29.26 in990.9 mb - 0.01 in0.3 mm 0.09 in2.3 mm
04:55 AM 32.3°F0.2°C 25.9°F-3.4°C 77% 1.2 mph W1.9 kmh W 2.3 mph3.7 kmh 29.25 in990.5 mb - 0.01 in0.3 mm 0.09 in2.3 mm
04:50 AM 32.3°F0.2°C 25.9°F-3.4°C 77% Calm Calm -- 29.25 in990.5 mb - 0.01 in0.3 mm 0.09 in2.3 mm
04:45 AM 32.3°F0.2°C 25.9°F-3.4°C 77% Calm Calm -- 29.25 in990.5 mb - 0.01 in0.3 mm 0.09 in2.3 mm
04:40 AM 32.4°F0.2°C 26.0°F-3.3°C 77% Calm Calm -- 29.25 in990.5 mb - 0.01 in0.3 mm 0.09 in2.3 mm
04:35 AM 32.4°F0.2°C 26.0°F-3.3°C 77% 2.3 mph W3.7 kmh W 2.3 mph3.7 kmh 29.24 in990.2 mb - 0.01 in0.3 mm 0.09 in2.3 mm
04:30 AM 32.4°F0.2°C 26.0°F-3.3°C 77% 1.2 mph W1.9 kmh W 3.5 mph5.6 kmh 29.25 in990.5 mb - 0.01 in0.3 mm 0.09 in2.3 mm
04:25 AM 32.3°F0.2°C 25.9°F-3.4°C 77% 1.2 mph W1.9 kmh W 2.3 mph3.7 kmh 29.24 in990.2 mb - 0.00 in0.0 mm 0.08 in2.0 mm
04:20 AM 32.3°F0.2°C 25.9°F-3.4°C 77% 1.2 mph W1.9 kmh W 2.3 mph3.7 kmh 29.24 in990.2 mb - 0.00 in0.0 mm 0.08 in2.0 mm
04:15 AM 32.3°F0.2°C 25.9°F-3.4°C 77% 1.2 mph W1.9 kmh W 2.3 mph3.7 kmh 29.24 in990.2 mb - 0.00 in0.0 mm 0.08 in2.0 mm
04:10 AM 32.5°F0.3°C 26.1°F-3.3°C 77% 1.2 mph W1.9 kmh W 2.3 mph3.7 kmh 29.24 in990.2 mb - 0.00 in0.0 mm 0.08 in2.0 mm
04:05 AM 32.6°F0.3°C 26.2°F-3.2°C 77% 1.2 mph W1.9 kmh W 1.2 mph1.9 kmh 29.23 in989.8 mb - 0.00 in0.0 mm 0.08 in2.0 mm
04:00 AM 32.7°F0.4°C 26.3°F-3.2°C 77% 1.2 mph W1.9 kmh W 2.3 mph3.7 kmh 29.23 in989.8 mb - 0.00 in0.0 mm 0.08 in2.0 mm
03:55 AM 32.7°F0.4°C 26.3°F-3.2°C 77% 1.2 mph W1.9 kmh W 3.5 mph5.6 kmh 29.23 in989.8 mb - 0.00 in0.0 mm 0.08 in2.0 mm
03:50 AM 32.8°F0.4°C 26.4°F-3.1°C 77% Calm Calm 1.2 mph1.9 kmh 29.22 in989.5 mb - 0.00 in0.0 mm 0.08 in2.0 mm
03:45 AM 32.9°F0.5°C 26.5°F-3.1°C 77% 1.2 mph W1.9 kmh W 1.2 mph1.9 kmh 29.22 in989.5 mb - 0.00 in0.0 mm 0.08 in2.0 mm
03:40 AM 33.0°F0.6°C 26.6°F-3.0°C 77% 1.2 mph W1.9 kmh W 1.2 mph1.9 kmh 29.22 in989.5 mb - 0.01 in0.3 mm 0.08 in2.0 mm
03:35 AM 33.0°F0.6°C 26.6°F-3.0°C 77% 1.2 mph W1.9 kmh W 2.3 mph3.7 kmh 29.23 in989.8 mb - 0.01 in0.3 mm 0.08 in2.0 mm
03:30 AM 33.1°F0.6°C 26.6°F-3.0°C 77% 1.2 mph W1.9 kmh W 2.3 mph3.7 kmh 29.23 in989.8 mb - 0.01 in0.3 mm 0.08 in2.0 mm
03:25 AM 33.1°F0.6°C 26.7°F-2.9°C 77% 1.2 mph W1.9 kmh W 2.3 mph3.7 kmh 29.23 in989.8 mb - 0.01 in0.3 mm 0.08 in2.0 mm
03:20 AM 33.1°F0.6°C 26.7°F-2.9°C 77% 2.3 mph W3.7 kmh W 3.5 mph5.6 kmh 29.23 in989.8 mb - 0.01 in0.3 mm 0.08 in2.0 mm
03:15 AM 33.1°F0.6°C 26.7°F-2.9°C 77% 2.3 mph W3.7 kmh W 3.5 mph5.6 kmh 29.22 in989.5 mb - 0.01 in0.3 mm 0.08 in2.0 mm
03:10 AM 33.1°F0.6°C 26.7°F-2.9°C 77% 2.3 mph W3.7 kmh W 3.5 mph5.6 kmh 29.22 in989.5 mb - 0.01 in0.3 mm 0.08 in2.0 mm
03:05 AM 33.1°F0.6°C 26.7°F-2.9°C 77% 1.2 mph W1.9 kmh W 3.5 mph5.6 kmh 29.22 in989.5 mb - 0.01 in0.3 mm 0.08 in2.0 mm
03:00 AM 33.2°F0.7°C 26.8°F-2.9°C 77% 2.3 mph W3.7 kmh W 3.5 mph5.6 kmh 29.22 in989.5 mb - 0.01 in0.3 mm 0.08 in2.0 mm
02:55 AM 33.3°F0.7°C 26.9°F-2.8°C 77% 3.5 mph W5.6 kmh W 5.8 mph9.3 kmh 29.21 in989.2 mb - 0.01 in0.3 mm 0.08 in2.0 mm
02:50 AM 33.3°F0.7°C 26.9°F-2.8°C 77% 1.2 mph W1.9 kmh W 2.3 mph3.7 kmh 29.21 in989.2 mb - 0.01 in0.3 mm 0.08 in2.0 mm
02:45 AM 33.3°F0.7°C 26.9°F-2.8°C 77% 2.3 mph W3.7 kmh W 3.5 mph5.6 kmh 29.21 in989.2 mb - 0.01 in0.3 mm 0.08 in2.0 mm
02:40 AM 33.4°F0.8°C 26.9°F-2.8°C 77% 2.3 mph W3.7 kmh W 3.5 mph5.6 kmh 29.21 in989.2 mb - 0.00 in0.0 mm 0.07 in1.8 mm
02:35 AM 33.3°F0.7°C 26.9°F-2.8°C 77% 2.3 mph W3.7 kmh W 3.5 mph5.6 kmh 29.21 in989.2 mb - 0.01 in0.3 mm 0.07 in1.8 mm
02:30 AM 33.3°F0.7°C 26.9°F-2.8°C 77% 4.6 mph WSW7.4 kmh WSW 6.9 mph11.1 kmh 29.21 in989.2 mb - 0.01 in0.3 mm 0.07 in1.8 mm
02:25 AM 33.3°F0.7°C 26.9°F-2.8°C 77% 4.6 mph WSW7.4 kmh WSW 6.9 mph11.1 kmh 29.21 in989.2 mb - 0.01 in0.3 mm 0.07 in1.8 mm
02:20 AM 33.4°F0.8°C 27.0°F-2.8°C 77% 5.8 mph WSW9.3 kmh WSW 10.4 mph16.7 kmh 29.20 in988.8 mb - 0.01 in0.3 mm 0.07 in1.8 mm
02:15 AM 33.4°F0.8°C 27.0°F-2.8°C 77% 5.8 mph W9.3 kmh W 6.9 mph11.1 kmh 29.20 in988.8 mb - 0.01 in0.3 mm 0.07 in1.8 mm
02:10 AM 33.4°F0.8°C 27.3°F-2.6°C 78% 4.6 mph WSW7.4 kmh WSW 6.9 mph11.1 kmh 29.20 in988.8 mb - 0.01 in0.3 mm 0.07 in1.8 mm
02:05 AM 33.5°F0.8°C 27.4°F-2.6°C 78% 4.6 mph WSW7.4 kmh WSW 4.6 mph7.4 kmh 29.19 in988.5 mb - 0.02 in0.5 mm 0.07 in1.8 mm
02:00 AM 33.5°F0.8°C 27.1°F-2.7°C 77% 3.5 mph W5.6 kmh W 5.8 mph9.3 kmh 29.19 in988.5 mb - 0.02 in0.5 mm 0.07 in1.8 mm
01:55 AM 33.5°F0.8°C 27.4°F-2.6°C 78% 4.6 mph WSW7.4 kmh WSW 6.9 mph11.1 kmh 29.19 in988.5 mb - 0.02 in0.5 mm 0.07 in1.8 mm
01:50 AM 33.7°F0.9°C 27.6°F-2.4°C 78% 4.6 mph WSW7.4 kmh WSW 9.2 mph14.8 kmh 29.19 in988.5 mb - 0.02 in0.5 mm 0.07 in1.8 mm
01:45 AM 33.8°F1.0°C 27.7°F-2.4°C 78% 4.6 mph W7.4 kmh W 8.1 mph13.0 kmh 29.18 in988.1 mb - 0.02 in0.5 mm 0.07 in1.8 mm
01:40 AM 34.1°F1.2°C 28.0°F-2.2°C 78% 4.6 mph WSW7.4 kmh WSW 6.9 mph11.1 kmh 29.18 in988.1 mb - 0.03 in0.8 mm 0.07 in1.8 mm
01:35 AM 34.4°F1.3°C 28.2°F-2.1°C 78% 3.5 mph W5.6 kmh W 5.8 mph9.3 kmh 29.18 in988.1 mb - 0.02 in0.5 mm 0.07 in1.8 mm
01:30 AM 34.6°F1.4°C 28.4°F-2.0°C 78% 5.8 mph WSW9.3 kmh WSW 8.1 mph13.0 kmh 29.17 in987.8 mb - 0.03 in0.8 mm 0.07 in1.8 mm
01:25 AM 34.9°F1.6°C 28.7°F-1.8°C 78% 3.5 mph WSW5.6 kmh WSW 5.8 mph9.3 kmh 29.17 in987.8 mb - 0.03 in0.8 mm 0.07 in1.8 mm
01:20 AM 35.0°F1.7°C 28.8°F-1.8°C 78% Calm Calm 2.3 mph3.7 kmh 29.16 in987.5 mb - 0.04 in1.0 mm 0.07 in1.8 mm
01:15 AM 35.1°F1.7°C 28.9°F-1.7°C 78% Calm Calm -- 29.16 in987.5 mb - 0.04 in1.0 mm 0.07 in1.8 mm
01:10 AM 35.2°F1.8°C 29.0°F-1.7°C 78% Calm Calm -- 29.16 in987.5 mb - 0.05 in1.3 mm 0.07 in1.8 mm
01:05 AM 35.3°F1.8°C 29.1°F-1.6°C 78% 2.3 mph ESE3.7 kmh ESE 5.8 mph9.3 kmh 29.16 in987.5 mb - 0.05 in1.3 mm 0.06 in1.5 mm
01:00 AM 35.5°F1.9°C 29.3°F-1.5°C 78% 3.5 mph SE5.6 kmh SE 3.5 mph5.6 kmh 29.15 in987.1 mb - 0.06 in1.5 mm 0.06 in1.5 mm
12:55 AM 35.5°F1.9°C 29.3°F-1.5°C 78% 2.3 mph E3.7 kmh E 3.5 mph5.6 kmh 29.15 in987.1 mb - 0.07 in1.8 mm 0.06 in1.5 mm
12:50 AM 35.4°F1.9°C 29.2°F-1.6°C 78% 6.9 mph E11.1 kmh E 8.1 mph13.0 kmh 29.15 in987.1 mb - 0.08 in2.0 mm 0.06 in1.5 mm
12:45 AM 35.4°F1.9°C 29.2°F-1.6°C 78% 4.6 mph E7.4 kmh E 8.1 mph13.0 kmh 29.15 in987.1 mb - 0.09 in2.3 mm 0.05 in1.3 mm
12:40 AM 35.4°F1.9°C 29.2°F-1.6°C 78% 5.8 mph E9.3 kmh E 6.9 mph11.1 kmh 29.15 in987.1 mb - 0.09 in2.3 mm 0.04 in1.0 mm
12:35 AM 35.4°F1.9°C 29.2°F-1.6°C 78% 4.6 mph E7.4 kmh E 5.8 mph9.3 kmh 29.14 in986.8 mb - 0.10 in2.5 mm 0.04 in1.0 mm
12:30 AM 35.3°F1.8°C 29.1°F-1.6°C 78% 8.1 mph E13.0 kmh E 11.5 mph18.5 kmh 29.14 in986.8 mb - 0.11 in2.8 mm 0.03 in0.8 mm
12:25 AM 35.3°F1.8°C 29.1°F-1.6°C 78% 9.2 mph E14.8 kmh E 10.4 mph16.7 kmh 29.14 in986.8 mb - 0.12 in3.0 mm 0.03 in0.8 mm
12:20 AM 35.2°F1.8°C 29.0°F-1.7°C 78% 5.8 mph E9.3 kmh E 8.1 mph13.0 kmh 29.14 in986.8 mb - 0.12 in3.0 mm 0.03 in0.8 mm
12:15 AM 35.1°F1.7°C 28.9°F-1.7°C 78% 6.9 mph E11.1 kmh E 11.5 mph18.5 kmh 29.14 in986.8 mb - 0.12 in3.0 mm 0.03 in0.8 mm
12:10 AM 35.0°F1.7°C 28.8°F-1.8°C 78% 8.1 mph E13.0 kmh E 10.4 mph16.7 kmh 29.14 in986.8 mb - 0.12 in3.0 mm 0.02 in0.5 mm
12:05 AM 35.0°F1.7°C 28.8°F-1.8°C 78% 8.1 mph E13.0 kmh E 11.5 mph18.5 kmh 29.14 in986.8 mb - 0.12 in3.0 mm 0.01 in0.3 mm
12:00 AM 34.9°F1.6°C 28.7°F-1.8°C 78% 10.4 mph E16.7 kmh E 13.8 mph22.2 kmh 29.14 in986.8 mb - 0.12 in3.0 mm 0.12 in3.0 mm